Time;durP1;ratioP1;P1;durP2;ratioP2;P2;SDS_P1;SDS_P2;PMS_P1;PMS_P2;Temp;Humidity;BMP_temperature;BMP_pressure;BME280_temperature;BME280_humidity;BME280_pressure;Samples;Min_cycle;Max_cycle;Signal;HPM_P1;HPM_P2
2023/12/19 00:01:33;;;;;;;21.80;13.07;;;;;;;;;;5037926;28;20487;-70
2023/12/19 00:04:03;;;;;;;23.27;13.48;;;;;;;;;;5040264;28;20994;-70
2023/12/19 00:06:31;;;;;;;21.98;13.27;;;;;;;;;;5033613;28;20500;-70
2023/12/19 00:08:58;;;;;;;23.48;14.15;;;;;;;;;;5039699;28;20442;-69
2023/12/19 00:11:27;;;;;;;23.57;13.90;;;;;;;;;;5042088;28;20425;-70
2023/12/19 00:13:58;;;;;;;21.58;13.38;;;;;;;;;;5041332;28;20494;-69
2023/12/19 00:16:25;;;;;;;18.70;12.38;;;;;;;;;;5029253;28;20435;-70
2023/12/19 00:18:58;;;;;;;22.55;13.23;;;;;;;;;;5031698;28;20429;-70
2023/12/19 00:21:28;;;;;;;17.90;10.85;;;;;;;;;;5033713;28;20435;-69
2023/12/19 00:23:59;;;;;;;19.37;12.80;;;;;;;;;;5033416;28;20971;-70
2023/12/19 00:26:31;;;;;;;18.77;12.27;;;;;;;;;;5031747;28;20917;-69
2023/12/19 00:28:58;;;;;;;19.67;12.43;;;;;;;;;;5035781;28;20433;-70
2023/12/19 00:31:26;;;;;;;21.95;13.02;;;;;;;;;;5033723;28;20994;-70
2023/12/19 00:33:53;;;;;;;18.65;11.50;;;;;;;;;;5036203;28;20432;-70
2023/12/19 00:36:21;;;;;;;20.38;12.57;;;;;;;;;;5031417;28;21147;-69
2023/12/19 00:38:49;;;;;;;19.53;12.23;;;;;;;;;;5037630;28;20465;-69
2023/12/19 00:41:17;;;;;;;15.90;11.32;;;;;;;;;;5033897;28;20952;-70
2023/12/19 00:43:47;;;;;;;17.27;11.88;;;;;;;;;;5043815;28;20464;-70
2023/12/19 00:46:15;;;;;;;16.35;10.85;;;;;;;;;;5034453;28;20487;-70
2023/12/19 00:48:42;;;;;;;17.00;11.43;;;;;;;;;;5043466;28;20429;-70
2023/12/19 00:51:10;;;;;;;15.98;10.73;;;;;;;;;;5036447;28;20430;-69
2023/12/19 00:53:38;;;;;;;16.80;11.00;;;;;;;;;;5034249;28;20965;-69
2023/12/19 00:56:12;;;;;;;14.30;10.55;;;;;;;;;;5028698;28;20956;-70
2023/12/19 00:58:39;;;;;;;16.33;10.98;;;;;;;;;;5033502;28;20430;-70
2023/12/19 01:01:07;;;;;;;16.58;10.95;;;;;;;;;;5034461;28;20434;-68
2023/12/19 01:03:37;;;;;;;15.68;10.85;;;;;;;;;;5030611;28;20447;-67
2023/12/19 01:06:05;;;;;;;16.83;11.52;;;;;;;;;;5036427;28;20430;-70
2023/12/19 01:08:32;;;;;;;17.77;11.95;;;;;;;;;;5039817;28;20465;-70
2023/12/19 01:10:59;;;;;;;17.05;11.40;;;;;;;;;;5031726;28;20425;-67
2023/12/19 01:13:26;;;;;;;18.43;11.13;;;;;;;;;;5043252;28;20539;-70
2023/12/19 01:15:53;;;;;;;18.65;11.35;;;;;;;;;;5041597;28;20934;-70
2023/12/19 01:18:21;;;;;;;18.60;12.20;;;;;;;;;;5038467;28;20426;-69
2023/12/19 01:20:49;;;;;;;19.05;12.05;;;;;;;;;;5031488;28;20502;-70
2023/12/19 01:23:16;;;;;;;19.08;11.93;;;;;;;;;;5036685;28;20464;-70
2023/12/19 01:25:46;;;;;;;23.65;12.63;;;;;;;;;;5042123;28;20437;-70
2023/12/19 01:28:13;;;;;;;28.23;13.63;;;;;;;;;;5034670;28;20431;-70
2023/12/19 01:30:40;;;;;;;22.07;12.40;;;;;;;;;;5048508;28;20437;-68
2023/12/19 01:33:11;;;;;;;20.53;12.30;;;;;;;;;;5030260;28;20446;-68
2023/12/19 01:35:41;;;;;;;19.80;12.48;;;;;;;;;;5042209;28;20440;-68
2023/12/19 01:38:09;;;;;;;20.23;12.33;;;;;;;;;;5039059;28;20526;-68
2023/12/19 01:40:36;;;;;;;22.50;13.20;;;;;;;;;;5048905;28;20503;-68
2023/12/19 01:43:03;;;;;;;22.70;12.30;;;;;;;;;;5039935;28;20518;-68
2023/12/19 01:45:30;;;;;;;24.48;12.68;;;;;;;;;;5042433;28;20760;-69
2023/12/19 01:47:58;;;;;;;21.02;12.45;;;;;;;;;;5038314;28;20437;-68
2023/12/19 01:50:25;;;;;;;19.65;12.00;;;;;;;;;;5039374;28;21110;-68
2023/12/19 01:52:57;;;;;;;18.98;11.95;;;;;;;;;;5046207;28;20469;-68
2023/12/19 01:55:24;;;;;;;20.17;12.25;;;;;;;;;;5031563;28;20439;-68
2023/12/19 01:57:53;;;;;;;18.50;11.50;;;;;;;;;;5040555;28;20893;-68
2023/12/19 02:00:21;;;;;;;20.02;12.45;;;;;;;;;;5032625;28;20438;-68
2023/12/19 02:02:52;;;;;;;19.48;12.02;;;;;;;;;;5028421;28;20435;-68
2023/12/19 02:05:19;;;;;;;19.50;12.10;;;;;;;;;;5031549;28;20435;-68
2023/12/19 02:07:48;;;;;;;17.93;11.57;;;;;;;;;;5038838;28;20481;-68
2023/12/19 02:10:15;;;;;;;16.63;10.70;;;;;;;;;;5045314;28;20439;-69
2023/12/19 02:12:43;;;;;;;19.05;11.40;;;;;;;;;;5030760;28;20909;-69
2023/12/19 02:15:11;;;;;;;18.88;11.77;;;;;;;;;;5039342;28;20434;-68
2023/12/19 02:17:39;;;;;;;20.35;12.13;;;;;;;;;;5049696;28;20492;-68
2023/12/19 02:20:07;;;;;;;21.37;12.80;;;;;;;;;;5047850;28;20478;-69
2023/12/19 02:22:34;;;;;;;21.17;12.48;;;;;;;;;;5036056;28;20475;-68
2023/12/19 02:25:07;;;;;;;22.25;12.43;;;;;;;;;;5033480;28;20991;-68
2023/12/19 02:27:35;;;;;;;23.67;12.70;;;;;;;;;;5036632;28;20441;-68
2023/12/19 02:30:06;;;;;;;22.67;12.55;;;;;;;;;;5030351;28;20427;-68
2023/12/19 02:32:36;;;;;;;22.58;13.07;;;;;;;;;;5044788;28;20439;-68
2023/12/19 02:35:03;;;;;;;20.08;12.43;;;;;;;;;;5037709;28;20433;-68
2023/12/19 02:37:31;;;;;;;23.42;12.55;;;;;;;;;;5036865;28;21101;-69
2023/12/19 02:39:58;;;;;;;21.90;11.98;;;;;;;;;;5037720;28;20514;-68
2023/12/19 02:42:25;;;;;;;20.20;12.70;;;;;;;;;;5045874;28;20427;-69
2023/12/19 02:44:52;;;;;;;24.65;12.75;;;;;;;;;;5045970;28;20460;-68
2023/12/19 02:47:20;;;;;;;22.65;12.30;;;;;;;;;;5032674;28;20776;-68
2023/12/19 02:49:47;;;;;;;21.83;12.60;;;;;;;;;;5041502;28;20452;-68
2023/12/19 02:52:14;;;;;;;23.33;13.05;;;;;;;;;;5045015;28;20425;-68
2023/12/19 02:54:41;;;;;;;23.90;13.50;;;;;;;;;;5040123;28;20748;-68
2023/12/19 02:57:12;;;;;;;22.60;13.20;;;;;;;;;;5038823;28;20431;-69
2023/12/19 02:59:39;;;;;;;24.42;12.45;;;;;;;;;;5035214;28;21186;-69
2023/12/19 03:02:06;;;;;;;22.63;12.80;;;;;;;;;;5038150;28;20508;-69
2023/12/19 03:04:33;;;;;;;23.58;13.48;;;;;;;;;;5045154;28;20436;-69
2023/12/19 03:07:03;;;;;;;22.70;12.43;;;;;;;;;;5033599;28;20441;-68
2023/12/19 03:09:33;;;;;;;26.30;13.18;;;;;;;;;;5034916;28;20949;-68
2023/12/19 03:12:03;;;;;;;25.48;13.00;;;;;;;;;;5035647;28;20952;-68
2023/12/19 03:14:31;;;;;;;27.60;13.77;;;;;;;;;;5035486;28;20431;-69
2023/12/19 03:16:58;;;;;;;27.48;13.60;;;;;;;;;;5041347;28;20441;-69
2023/12/19 03:19:25;;;;;;;29.33;14.35;;;;;;;;;;5033070;28;20445;-68
2023/12/19 03:21:55;;;;;;;32.40;15.20;;;;;;;;;;5037269;28;20502;-68
2023/12/19 03:24:23;;;;;;;33.78;14.88;;;;;;;;;;5039945;28;20434;-69
2023/12/19 03:26:50;;;;;;;31.15;15.00;;;;;;;;;;5039662;28;20438;-68
2023/12/19 03:29:17;;;;;;;29.20;14.90;;;;;;;;;;5039191;28;20512;-69
2023/12/19 03:31:44;;;;;;;27.88;14.38;;;;;;;;;;5036462;28;20460;-68
2023/12/19 03:34:12;;;;;;;33.92;14.93;;;;;;;;;;5043761;28;20433;-69
2023/12/19 03:36:42;;;;;;;29.58;14.35;;;;;;;;;;5043392;28;20436;-68
2023/12/19 03:39:09;;;;;;;29.60;14.38;;;;;;;;;;5036742;28;20439;-68
2023/12/19 03:41:39;;;;;;;26.52;14.05;;;;;;;;;;5044087;28;20431;-69
2023/12/19 03:44:06;;;;;;;25.52;13.77;;;;;;;;;;5035134;28;20713;-68
2023/12/19 03:46:36;;;;;;;25.58;14.32;;;;;;;;;;5034957;28;20483;-68
2023/12/19 03:49:03;;;;;;;25.40;13.95;;;;;;;;;;5039499;28;20426;-68
2023/12/19 03:51:31;;;;;;;25.98;13.75;;;;;;;;;;5035833;28;20440;-69
2023/12/19 03:53:58;;;;;;;22.95;13.43;;;;;;;;;;5031644;28;20437;-68
2023/12/19 03:56:25;;;;;;;25.10;13.95;;;;;;;;;;5034015;28;20481;-69
2023/12/19 03:58:52;;;;;;;26.35;14.05;;;;;;;;;;5037364;28;20465;-69
2023/12/19 04:01:24;;;;;;;24.73;13.80;;;;;;;;;;5029917;28;20430;-69
2023/12/19 04:03:52;;;;;;;24.05;13.70;;;;;;;;;;5040543;28;20432;-69
2023/12/19 04:06:19;;;;;;;22.88;13.07;;;;;;;;;;5032863;28;20532;-69
2023/12/19 04:08:52;;;;;;;21.15;12.50;;;;;;;;;;5035445;28;20469;-69
2023/12/19 04:11:20;;;;;;;21.90;12.93;;;;;;;;;;5035728;28;21503;-69
2023/12/19 04:13:47;;;;;;;22.50;13.43;;;;;;;;;;5034457;28;20849;-69
2023/12/19 04:16:17;;;;;;;21.55;12.50;;;;;;;;;;5035346;28;20479;-68
2023/12/19 04:18:47;;;;;;;22.33;13.05;;;;;;;;;;5034518;28;20438;-69
2023/12/19 04:21:14;;;;;;;19.25;11.57;;;;;;;;;;5035144;28;20424;-69
2023/12/19 04:23:42;;;;;;;20.40;12.63;;;;;;;;;;5029952;28;20431;-69
2023/12/19 04:26:09;;;;;;;19.73;12.85;;;;;;;;;;5035919;28;20492;-69
2023/12/19 04:28:36;;;;;;;22.38;12.13;;;;;;;;;;5035599;28;20438;-68
2023/12/19 04:31:03;;;;;;;20.25;12.20;;;;;;;;;;5041788;28;20513;-68
2023/12/19 04:33:31;;;;;;;20.73;12.18;;;;;;;;;;5031603;28;20786;-68
2023/12/19 04:36:00;;;;;;;21.17;12.43;;;;;;;;;;5034983;28;20781;-68
2023/12/19 04:38:27;;;;;;;19.40;12.73;;;;;;;;;;5042255;28;20832;-69
2023/12/19 04:40:54;;;;;;;20.52;12.20;;;;;;;;;;5045529;28;20440;-69
2023/12/19 04:43:23;;;;;;;17.87;11.30;;;;;;;;;;5036102;28;20425;-68
2023/12/19 04:45:51;;;;;;;19.50;11.90;;;;;;;;;;5038138;28;20440;-68
2023/12/19 04:48:18;;;;;;;18.77;12.00;;;;;;;;;;5036908;28;20516;-69
2023/12/19 04:50:45;;;;;;;19.33;11.93;;;;;;;;;;5035008;28;20454;-69
2023/12/19 04:53:13;;;;;;;17.85;11.50;;;;;;;;;;5036712;28;20490;-69
2023/12/19 04:55:40;;;;;;;18.48;11.07;;;;;;;;;;5038162;28;20437;-69
2023/12/19 04:58:11;;;;;;;17.17;11.50;;;;;;;;;;5042509;28;20425;-69
2023/12/19 05:00:38;;;;;;;17.75;11.05;;;;;;;;;;5033893;28;20438;-69
2023/12/19 05:03:06;;;;;;;17.55;11.48;;;;;;;;;;5037948;28;20427;-68
2023/12/19 05:05:33;;;;;;;18.23;11.70;;;;;;;;;;5039475;28;20431;-68
2023/12/19 05:08:01;;;;;;;17.42;10.93;;;;;;;;;;5048046;28;20448;-69
2023/12/19 05:10:28;;;;;;;18.10;10.95;;;;;;;;;;5035602;28;20468;-69
2023/12/19 05:12:55;;;;;;;16.23;11.10;;;;;;;;;;5038365;28;20558;-69
2023/12/19 05:15:22;;;;;;;16.38;10.82;;;;;;;;;;5040052;28;20858;-69
2023/12/19 05:17:49;;;;;;;16.58;10.95;;;;;;;;;;5049494;28;20441;-69
2023/12/19 05:20:17;;;;;;;16.43;11.20;;;;;;;;;;5034958;28;20452;-69
2023/12/19 05:22:44;;;;;;;15.68;10.73;;;;;;;;;;5047789;28;20440;-69
2023/12/19 05:25:15;;;;;;;16.30;11.30;;;;;;;;;;5037413;28;21028;-69
2023/12/19 05:27:43;;;;;;;15.50;10.68;;;;;;;;;;5033749;28;20430;-69
2023/12/19 05:30:12;;;;;;;17.15;11.25;;;;;;;;;;5036454;28;20503;-69
2023/12/19 05:32:43;;;;;;;15.20;10.73;;;;;;;;;;5039097;28;20857;-68
2023/12/19 05:35:11;;;;;;;14.43;10.25;;;;;;;;;;5037540;28;20998;-69
2023/12/19 05:37:41;;;;;;;15.20;10.73;;;;;;;;;;5037477;28;20437;-68
2023/12/19 05:40:11;;;;;;;16.58;11.35;;;;;;;;;;5036022;28;20441;-69
2023/12/19 05:42:38;;;;;;;14.90;10.50;;;;;;;;;;5040044;28;20462;-69
2023/12/19 05:45:07;;;;;;;15.02;9.73;;;;;;;;;;5046214;28;20531;-68
2023/12/19 05:47:34;;;;;;;16.23;11.00;;;;;;;;;;5042733;28;20437;-68
2023/12/19 05:50:04;;;;;;;15.10;10.90;;;;;;;;;;5046719;28;20561;-68
2023/12/19 05:52:31;;;;;;;15.05;10.23;;;;;;;;;;5042624;28;20512;-69
2023/12/19 05:55:00;;;;;;;15.73;10.80;;;;;;;;;;5042546;28;20433;-69
2023/12/19 05:57:28;;;;;;;13.93;9.60;;;;;;;;;;5038002;28;20489;-69
2023/12/19 05:59:55;;;;;;;15.75;10.85;;;;;;;;;;5045355;28;20427;-69
2023/12/19 06:02:22;;;;;;;14.75;10.25;;;;;;;;;;5044223;28;20487;-69
2023/12/19 06:04:51;;;;;;;13.97;9.80;;;;;;;;;;5037757;28;20446;-69
2023/12/19 06:07:18;;;;;;;13.43;9.65;;;;;;;;;;5042693;28;20425;-68
2023/12/19 06:09:46;;;;;;;13.95;9.98;;;;;;;;;;5035794;28;20503;-67
2023/12/19 06:12:13;;;;;;;14.23;9.30;;;;;;;;;;5036282;28;20502;-67
2023/12/19 06:14:40;;;;;;;14.40;10.18;;;;;;;;;;5035434;28;20465;-67
2023/12/19 06:17:07;;;;;;;13.15;9.77;;;;;;;;;;5046388;28;20429;-67
2023/12/19 06:19:34;;;;;;;12.27;8.95;;;;;;;;;;5041570;28;20439;-67
2023/12/19 06:22:02;;;;;;;13.90;8.95;;;;;;;;;;5034508;28;20427;-67
2023/12/19 06:24:32;;;;;;;14.40;10.15;;;;;;;;;;5046335;28;20497;-67
2023/12/19 06:26:59;;;;;;;14.13;9.82;;;;;;;;;;5034777;28;20445;-67
2023/12/19 06:29:26;;;;;;;13.85;10.02;;;;;;;;;;5046023;28;20437;-67
2023/12/19 06:31:54;;;;;;;14.10;9.77;;;;;;;;;;5046419;28;20429;-67
2023/12/19 06:34:21;;;;;;;13.10;9.60;;;;;;;;;;5034334;28;20431;-67
2023/12/19 06:36:48;;;;;;;13.32;9.90;;;;;;;;;;5037774;28;20534;-67
2023/12/19 06:39:16;;;;;;;14.23;9.82;;;;;;;;;;5045180;28;20448;-68
2023/12/19 06:41:43;;;;;;;13.13;9.68;;;;;;;;;;5038110;28;20481;-67
2023/12/19 06:44:12;;;;;;;14.63;9.52;;;;;;;;;;5037721;28;20484;-67
2023/12/19 06:46:39;;;;;;;13.60;9.55;;;;;;;;;;5041042;28;20431;-67
2023/12/19 06:49:07;;;;;;;13.30;9.63;;;;;;;;;;5037705;28;20435;-67
2023/12/19 06:51:36;;;;;;;13.35;9.85;;;;;;;;;;5034415;28;20530;-69
2023/12/19 06:54:09;;;;;;;12.43;9.20;;;;;;;;;;5039847;28;20449;-69
2023/12/19 06:56:37;;;;;;;14.25;9.75;;;;;;;;;;5030514;28;20489;-69
2023/12/19 06:59:06;;;;;;;14.52;9.30;;;;;;;;;;5036378;28;20429;-69
2023/12/19 07:01:33;;;;;;;12.70;9.27;;;;;;;;;;5038278;28;20429;-69
2023/12/19 07:04:00;;;;;;;14.02;10.05;;;;;;;;;;5041885;28;20482;-69
2023/12/19 07:06:30;;;;;;;13.57;10.30;;;;;;;;;;5040337;28;20435;-69
2023/12/19 07:08:57;;;;;;;14.38;9.75;;;;;;;;;;5031153;28;20430;-69
2023/12/19 07:11:26;;;;;;;14.45;9.85;;;;;;;;;;5035067;28;20456;-69
2023/12/19 07:13:53;;;;;;;14.65;10.15;;;;;;;;;;5034062;28;20430;-69
2023/12/19 07:16:21;;;;;;;13.95;10.18;;;;;;;;;;5036027;28;20500;-69
2023/12/19 07:18:49;;;;;;;15.15;10.77;;;;;;;;;;5031132;28;20430;-68
2023/12/19 07:21:23;;;;;;;16.77;11.10;;;;;;;;;;5043987;28;20537;-69
2023/12/19 07:23:50;;;;;;;16.95;11.23;;;;;;;;;;5044783;28;20425;-69
2023/12/19 07:26:24;;;;;;;14.23;9.95;;;;;;;;;;5037755;28;20909;-69
2023/12/19 07:28:52;;;;;;;13.52;9.95;;;;;;;;;;5039730;28;20460;-67
2023/12/19 07:31:23;;;;;;;16.60;11.23;;;;;;;;;;5038406;28;20449;-67
2023/12/19 07:33:51;;;;;;;16.25;10.93;;;;;;;;;;5037314;28;20472;-68
2023/12/19 07:36:18;;;;;;;16.17;11.52;;;;;;;;;;5045199;28;20440;-67
2023/12/19 07:38:46;;;;;;;16.33;11.23;;;;;;;;;;5033454;28;20494;-67
2023/12/19 07:41:13;;;;;;;17.73;11.70;;;;;;;;;;5030567;28;20860;-67
2023/12/19 07:43:40;;;;;;;17.43;11.77;;;;;;;;;;5037133;28;20441;-67
2023/12/19 07:46:07;;;;;;;18.27;12.02;;;;;;;;;;5033853;28;20507;-67
2023/12/19 07:48:38;;;;;;;18.50;11.65;;;;;;;;;;5038274;28;20435;-67
2023/12/19 07:51:08;;;;;;;17.15;11.80;;;;;;;;;;5031910;28;20456;-67
2023/12/19 07:53:38;;;;;;;18.00;12.05;;;;;;;;;;5031920;28;20528;-67
2023/12/19 07:56:05;;;;;;;16.63;11.63;;;;;;;;;;5034802;28;20983;-67
2023/12/19 07:58:33;;;;;;;18.67;12.00;;;;;;;;;;5032047;28;20886;-67
2023/12/19 08:01:00;;;;;;;16.90;11.05;;;;;;;;;;5036269;28;20427;-68
2023/12/19 08:03:30;;;;;;;19.43;11.90;;;;;;;;;;5037392;28;20910;-67
2023/12/19 08:05:58;;;;;;;18.37;11.43;;;;;;;;;;5034408;28;20443;-67
2023/12/19 08:08:25;;;;;;;18.27;11.52;;;;;;;;;;5033614;28;20449;-67
2023/12/19 08:10:53;;;;;;;16.70;11.53;;;;;;;;;;5037302;28;20431;-67
2023/12/19 08:13:20;;;;;;;16.52;10.93;;;;;;;;;;5035612;28;20452;-67
2023/12/19 08:15:48;;;;;;;17.45;10.95;;;;;;;;;;5034488;28;20485;-67
2023/12/19 08:18:16;;;;;;;19.67;12.30;;;;;;;;;;5040753;28;21215;-67
2023/12/19 08:20:43;;;;;;;19.83;11.30;;;;;;;;;;5044516;28;20502;-67
2023/12/19 08:23:10;;;;;;;17.50;11.32;;;;;;;;;;5040760;28;20464;-67
2023/12/19 08:25:41;;;;;;;18.67;12.27;;;;;;;;;;5039002;28;20438;-67
2023/12/19 08:28:09;;;;;;;18.30;11.48;;;;;;;;;;5044454;28;20460;-67
2023/12/19 08:30:36;;;;;;;19.15;11.60;;;;;;;;;;5037101;28;20555;-67
2023/12/19 08:33:05;;;;;;;18.67;11.15;;;;;;;;;;5031481;28;20431;-67
2023/12/19 08:35:32;;;;;;;18.10;11.73;;;;;;;;;;5037442;28;20440;-66
2023/12/19 08:37:59;;;;;;;16.47;11.17;;;;;;;;;;5035447;28;20431;-67
2023/12/19 08:40:26;;;;;;;17.90;11.35;;;;;;;;;;5035267;28;20498;-67
2023/12/19 08:42:54;;;;;;;18.00;11.27;;;;;;;;;;5037948;28;20437;-67
2023/12/19 08:45:26;;;;;;;18.17;11.52;;;;;;;;;;5037878;28;21138;-68
2023/12/19 08:47:54;;;;;;;20.35;12.07;;;;;;;;;;5042823;28;20490;-67
2023/12/19 08:50:22;;;;;;;18.25;11.27;;;;;;;;;;5036578;28;20521;-67
2023/12/19 08:52:49;;;;;;;18.98;11.25;;;;;;;;;;5035355;28;20451;-67
2023/12/19 08:55:17;;;;;;;18.33;11.32;;;;;;;;;;5040014;28;20425;-67
2023/12/19 08:57:45;;;;;;;19.73;12.13;;;;;;;;;;5037692;28;20439;-67
2023/12/19 09:00:16;;;;;;;20.30;11.85;;;;;;;;;;5037150;28;20454;-67
2023/12/19 09:02:43;;;;;;;17.88;11.52;;;;;;;;;;5043921;28;20505;-67
2023/12/19 09:05:12;;;;;;;17.23;11.23;;;;;;;;;;5042090;28;20535;-67
2023/12/19 09:07:40;;;;;;;16.15;10.88;;;;;;;;;;5034975;28;20444;-67
2023/12/19 09:10:07;;;;;;;17.02;11.05;;;;;;;;;;5033751;28;20437;-67
2023/12/19 09:12:36;;;;;;;16.60;10.68;;;;;;;;;;5034337;28;20525;-67
2023/12/19 09:15:05;;;;;;;18.50;11.43;;;;;;;;;;5039873;28;20436;-68
2023/12/19 09:17:32;;;;;;;15.65;10.70;;;;;;;;;;5037973;28;20492;-67
2023/12/19 09:20:04;;;;;;;17.25;10.88;;;;;;;;;;5035419;28;20460;-67
2023/12/19 09:22:32;;;;;;;17.17;11.05;;;;;;;;;;5027681;28;20508;-68
2023/12/19 09:24:59;;;;;;;17.53;11.13;;;;;;;;;;5023710;28;20532;-67
2023/12/19 09:27:26;;;;;;;14.32;10.40;;;;;;;;;;5038568;28;20517;-67
2023/12/19 09:29:54;;;;;;;16.55;10.75;;;;;;;;;;5033678;28;21206;-67
2023/12/19 09:32:22;;;;;;;15.40;10.13;;;;;;;;;;5036817;28;20429;-67
2023/12/19 09:34:49;;;;;;;15.68;10.27;;;;;;;;;;5032676;28;20982;-67
2023/12/19 09:37:23;;;;;;;15.85;10.30;;;;;;;;;;5038067;28;20421;-67
2023/12/19 09:39:51;;;;;;;15.47;10.53;;;;;;;;;;5038241;28;20457;-67
2023/12/19 09:42:21;;;;;;;14.50;9.90;;;;;;;;;;5043578;28;20433;-67
2023/12/19 09:44:49;;;;;;;14.13;9.75;;;;;;;;;;5042892;28;20436;-67
2023/12/19 09:47:26;;;;;;;13.07;9.48;;;;;;;;;;5034119;28;20431;-67
2023/12/19 09:49:54;;;;;;;14.57;9.05;;;;;;;;;;5040031;28;20430;-67
2023/12/19 09:52:22;;;;;;;15.13;9.38;;;;;;;;;;5039905;28;20817;-67
2023/12/19 09:54:50;;;;;;;11.55;8.57;;;;;;;;;;5040744;28;20518;-67
2023/12/19 09:57:19;;;;;;;14.18;9.13;;;;;;;;;;5038278;28;20907;-67
2023/12/19 09:59:47;;;;;;;15.05;9.70;;;;;;;;;;5039195;28;20458;-67
2023/12/19 10:02:24;;;;;;;13.98;9.18;;;;;;;;;;5035879;28;20440;-67
2023/12/19 10:04:52;;;;;;;13.20;8.60;;;;;;;;;;5036017;28;20435;-67
2023/12/19 10:07:20;;;;;;;13.98;8.60;;;;;;;;;;5039565;28;20943;-67
2023/12/19 10:09:57;;;;;;;13.05;8.52;;;;;;;;;;5041676;28;20465;-67
2023/12/19 10:12:30;;;;;;;11.50;8.25;;;;;;;;;;5042726;28;20899;-66
2023/12/19 10:15:13;;;;;;;10.52;7.70;;;;;;;;;;5037236;28;20429;-67
2023/12/19 10:18:03;;;;;;;11.10;8.07;;;;;;;;;;5044308;28;20986;-63
2023/12/19 10:20:30;;;;;;;10.20;7.70;;;;;;;;;;5041055;28;20745;-67
2023/12/19 10:23:04;;;;;;;11.15;7.38;;;;;;;;;;5039069;28;20462;-66
2023/12/19 10:25:32;;;;;;;11.05;6.95;;;;;;;;;;5041114;28;20433;-66
2023/12/19 10:28:12;;;;;;;8.95;6.55;;;;;;;;;;5037761;28;21152;-67
2023/12/19 10:30:40;;;;;;;11.35;7.65;;;;;;;;;;5038008;28;20935;-66
2023/12/19 10:33:08;;;;;;;9.43;7.18;;;;;;;;;;5037707;28;20518;-66
2023/12/19 10:35:36;;;;;;;9.37;7.07;;;;;;;;;;5031683;28;20483;-66
2023/12/19 10:38:07;;;;;;;8.55;6.63;;;;;;;;;;5043905;28;20443;-66
2023/12/19 10:40:36;;;;;;;9.88;6.78;;;;;;;;;;5034437;28;20433;-66
2023/12/19 10:43:04;;;;;;;9.48;6.53;;;;;;;;;;5043769;28;20800;-66
2023/12/19 10:45:32;;;;;;;8.73;6.00;;;;;;;;;;5040484;28;20431;-66
2023/12/19 10:47:59;;;;;;;7.15;5.78;;;;;;;;;;5045540;28;20555;-67
2023/12/19 10:50:27;;;;;;;7.68;5.70;;;;;;;;;;5041359;28;20439;-67
2023/12/19 10:52:58;;;;;;;7.77;5.80;;;;;;;;;;5032416;28;20433;-66
2023/12/19 10:55:28;;;;;;;7.47;5.72;;;;;;;;;;5036030;28;20433;-67
2023/12/19 10:57:55;;;;;;;8.13;5.53;;;;;;;;;;5034201;28;20477;-66
2023/12/19 11:00:25;;;;;;;6.82;5.20;;;;;;;;;;5033660;28;20885;-67
2023/12/19 11:03:16;;;;;;;7.97;5.32;;;;;;;;;;5036595;28;20530;-67
2023/12/19 11:05:47;;;;;;;7.30;4.93;;;;;;;;;;5037796;28;20439;-67
2023/12/19 11:08:17;;;;;;;5.80;4.85;;;;;;;;;;5039576;28;20517;-67
2023/12/19 11:10:56;;;;;;;5.43;4.80;;;;;;;;;;5032370;28;20434;-67
2023/12/19 11:13:27;;;;;;;6.90;5.45;;;;;;;;;;5032856;28;20429;-67
2023/12/19 11:16:07;;;;;;;6.55;4.82;;;;;;;;;;5036880;28;20518;-67
2023/12/19 11:18:53;;;;;;;7.15;5.32;;;;;;;;;;5042755;28;20437;-67
2023/12/19 11:21:23;;;;;;;5.68;4.90;;;;;;;;;;5044392;28;20425;-67
2023/12/19 11:23:54;;;;;;;5.47;4.72;;;;;;;;;;5037280;28;20487;-67
2023/12/19 11:26:27;;;;;;;6.53;5.00;;;;;;;;;;5032098;28;20504;-67
2023/12/19 11:28:54;;;;;;;6.93;5.30;;;;;;;;;;5036853;28;20571;-67
2023/12/19 11:31:39;;;;;;;7.05;5.43;;;;;;;;;;5046327;28;20436;-67
2023/12/19 11:34:22;;;;;;;6.88;5.38;;;;;;;;;;5042945;28;20441;-67
2023/12/19 11:37:03;;;;;;;6.97;5.40;;;;;;;;;;5033702;28;20441;-67
2023/12/19 11:39:33;;;;;;;8.20;5.82;;;;;;;;;;5041338;28;20475;-67
2023/12/19 11:42:00;;;;;;;7.40;5.85;;;;;;;;;;5037932;28;20854;-67
2023/12/19 11:44:37;;;;;;;7.93;5.50;;;;;;;;;;5036734;28;20560;-67
2023/12/19 11:47:14;;;;;;;7.72;5.68;;;;;;;;;;5038980;28;20487;-67
2023/12/19 11:49:41;;;;;;;8.70;5.63;;;;;;;;;;5032838;28;20516;-67
2023/12/19 11:52:09;;;;;;;7.43;5.38;;;;;;;;;;5041226;28;20453;-67
2023/12/19 11:54:36;;;;;;;7.85;5.30;;;;;;;;;;5040267;28;20433;-67
2023/12/19 11:57:04;;;;;;;7.93;5.70;;;;;;;;;;5042071;28;20425;-67
2023/12/19 11:59:45;;;;;;;6.85;5.05;;;;;;;;;;5030287;28;20918;-66
2023/12/19 12:02:12;;;;;;;7.55;5.38;;;;;;;;;;5033962;28;20427;-66
2023/12/19 12:04:39;;;;;;;7.68;5.38;;;;;;;;;;5039549;28;21442;-66
2023/12/19 12:07:06;;;;;;;6.18;4.75;;;;;;;;;;5038059;28;20430;-66
2023/12/19 12:09:34;;;;;;;5.43;4.50;;;;;;;;;;5034663;28;20507;-66
2023/12/19 12:12:02;;;;;;;5.90;4.75;;;;;;;;;;5042454;28;20497;-66
2023/12/19 12:14:32;;;;;;;5.63;4.50;;;;;;;;;;5038978;28;20442;-66
2023/12/19 12:16:59;;;;;;;6.80;4.75;;;;;;;;;;5036628;28;20432;-66
2023/12/19 12:19:26;;;;;;;5.75;4.80;;;;;;;;;;5043013;28;20443;-66
2023/12/19 12:21:57;;;;;;;7.20;5.40;;;;;;;;;;5039411;28;20441;-66
2023/12/19 12:24:25;;;;;;;6.43;5.00;;;;;;;;;;5037810;28;20429;-66
2023/12/19 12:27:11;;;;;;;9.10;5.30;;;;;;;;;;5030011;28;20882;-67
2023/12/19 12:29:40;;;;;;;6.45;5.03;;;;;;;;;;5033228;28;20440;-66
2023/12/19 12:32:08;;;;;;;7.03;5.03;;;;;;;;;;5038592;28;20590;-66
2023/12/19 12:34:35;;;;;;;7.23;5.17;;;;;;;;;;5041807;28;20441;-66
2023/12/19 12:37:02;;;;;;;7.65;5.03;;;;;;;;;;5035199;28;20434;-66
2023/12/19 12:39:29;;;;;;;6.20;4.97;;;;;;;;;;5033340;28;20433;-66
2023/12/19 12:42:00;;;;;;;6.05;4.90;;;;;;;;;;5031355;28;20441;-67
2023/12/19 12:44:27;;;;;;;6.60;4.90;;;;;;;;;;5038155;28;20425;-67
2023/12/19 12:46:55;;;;;;;6.93;4.97;;;;;;;;;;5036318;28;21823;-67
2023/12/19 12:49:22;;;;;;;7.17;5.40;;;;;;;;;;5033433;28;20490;-67
2023/12/19 12:51:55;;;;;;;5.97;5.30;;;;;;;;;;5035273;28;20434;-67
2023/12/19 12:54:22;;;;;;;6.55;5.07;;;;;;;;;;5033616;28;20455;-67
2023/12/19 12:56:50;;;;;;;7.15;5.22;;;;;;;;;;5031216;28;20431;-67
2023/12/19 12:59:22;;;;;;;7.03;5.40;;;;;;;;;;5033945;28;20508;-67
2023/12/19 13:01:49;;;;;;;6.15;5.05;;;;;;;;;;5045346;28;20426;-67
2023/12/19 13:04:18;;;;;;;6.90;5.10;;;;;;;;;;5040010;28;20433;-67
2023/12/19 13:06:45;;;;;;;8.95;5.55;;;;;;;;;;5044442;28;20436;-67
2023/12/19 13:09:14;;;;;;;6.95;5.57;;;;;;;;;;5034785;28;20583;-68
2023/12/19 13:11:44;;;;;;;7.53;5.30;;;;;;;;;;5038235;28;20539;-67
2023/12/19 13:14:12;;;;;;;6.00;5.10;;;;;;;;;;5041901;28;20435;-68
2023/12/19 13:16:39;;;;;;;6.90;5.10;;;;;;;;;;5039605;28;20836;-67
2023/12/19 13:19:07;;;;;;;5.90;5.00;;;;;;;;;;5043869;28;20428;-67
2023/12/19 13:21:34;;;;;;;7.30;5.53;;;;;;;;;;5043765;28;20487;-67
2023/12/19 13:24:01;;;;;;;5.53;5.03;;;;;;;;;;5041453;28;20433;-67
2023/12/19 13:26:34;;;;;;;6.75;5.32;;;;;;;;;;5044394;28;20781;-67
2023/12/19 13:29:02;;;;;;;7.25;5.43;;;;;;;;;;5046610;28;20426;-67
2023/12/19 13:31:31;;;;;;;6.03;5.03;;;;;;;;;;5040693;28;20468;-67
2023/12/19 13:34:00;;;;;;;6.63;5.35;;;;;;;;;;5041834;28;20461;-67
2023/12/19 13:36:27;;;;;;;6.27;5.00;;;;;;;;;;5043001;28;20437;-67
2023/12/19 13:38:56;;;;;;;5.82;5.15;;;;;;;;;;5035966;28;20512;-67
2023/12/19 13:41:23;;;;;;;7.20;5.07;;;;;;;;;;5044060;28;20473;-67
2023/12/19 13:43:50;;;;;;;6.72;5.10;;;;;;;;;;5042104;28;20933;-67
2023/12/19 13:46:20;;;;;;;6.20;5.20;;;;;;;;;;5041843;28;20443;-68
2023/12/19 13:48:48;;;;;;;6.47;5.38;;;;;;;;;;5040799;28;20433;-67
2023/12/19 13:51:15;;;;;;;6.83;5.33;;;;;;;;;;5039951;28;20429;-68
2023/12/19 13:53:43;;;;;;;5.95;5.10;;;;;;;;;;5048036;28;20573;-67
2023/12/19 13:56:10;;;;;;;6.72;5.20;;;;;;;;;;5042280;28;20439;-67
2023/12/19 13:58:40;;;;;;;7.30;4.73;;;;;;;;;;5040470;28;20437;-67
2023/12/19 14:01:08;;;;;;;6.17;5.30;;;;;;;;;;5041888;28;20455;-67
2023/12/19 14:03:38;;;;;;;5.47;4.95;;;;;;;;;;5044148;28;20459;-67
2023/12/19 14:06:06;;;;;;;7.72;5.45;;;;;;;;;;5035808;28;20441;-67
2023/12/19 14:08:42;;;;;;;6.55;5.25;;;;;;;;;;5038942;28;20432;-67
2023/12/19 14:11:09;;;;;;;6.82;4.97;;;;;;;;;;5036878;28;20510;-67
2023/12/19 14:13:37;;;;;;;6.13;5.15;;;;;;;;;;5039892;28;20446;-67
2023/12/19 14:16:09;;;;;;;7.65;4.88;;;;;;;;;;5036706;28;20434;-66
2023/12/19 14:18:37;;;;;;;6.78;5.13;;;;;;;;;;5038955;28;20423;-67
2023/12/19 14:21:07;;;;;;;5.40;4.60;;;;;;;;;;5045061;28;20902;-67
2023/12/19 14:23:35;;;;;;;5.93;4.72;;;;;;;;;;5048938;28;20456;-67
2023/12/19 14:26:02;;;;;;;6.30;4.95;;;;;;;;;;5045729;28;20467;-67
2023/12/19 14:28:30;;;;;;;6.13;5.07;;;;;;;;;;5044033;28;20431;-67
2023/12/19 14:30:57;;;;;;;6.18;4.78;;;;;;;;;;5038721;28;20965;-67
2023/12/19 14:33:24;;;;;;;5.45;4.88;;;;;;;;;;5041975;28;20508;-68
2023/12/19 14:35:52;;;;;;;6.63;4.80;;;;;;;;;;5033557;28;20431;-67